Miami, FL

12:34 PM EDT am 27. März 2017 (GMT -0400)
U of Miami Health System WeatherSTEM | | Change Station

Höhe 68 ft 25.79 °N, 80.22 °W | Updated 27 seconds ago

Wolkig
Wolkig
77.1 °F
gefühlte 79 °F
N
12.0
Wind Wechselnd Wind aus Ost

Heute
Max. -- | schwach -- °F
--% Regenrisiko
Gestern
Max. -- | schwach -- °F
Precip. -- inch
Druck 30.09 inch
Sichtweite 10.0 Meilen
Wolken Wolkig 4100 ft
Wolkig 5500 ft
Hitzeindex 79 °F
Taupunkt 62 °F
Feuchtigkeit 59%
Regen 0.00 inch
Schneehöhe Nicht verfügbar..
7:17 AM 7:35 PM
Letztes Viertel, 0% visible
METAR KMIA 271553Z 11007KT 10SM BKN041 BKN055 28/16 A3009 RMK AO2 SLP190 T02780161 $
Druck 30.09 inch
Sichtweite 10.0 Meilen
Wolken Wolkig 4100 ft
Wolkig 5500 ft
Hitzeindex 79 °F
Taupunkt 62 °F
Feuchtigkeit 59%
Regen 0.00 inch
Schneehöhe Nicht verfügbar..
7:17 AM 7:35 PM
Letztes Viertel, 0% visible
METAR KMIA 271553Z 11007KT 10SM BKN041 BKN055 28/16 A3009 RMK AO2 SLP190 T02780161 $

Get Severe Weather Alerts

Thanks for signing up!

Be on the lookout for a verification email in your inbox.

You'll start receiving the daily forecast at 8 AM.

×

10-Day Weather Forecast

Almanac

Astronomie

Mar. 27, 2017 Aufgang Untergang
Genaue Zeit
Bürgerliche Dämmerung
Nautische Dämmerung
Astronomische Dämmerung
Mond
Länge des sichtbaren Lichts
Tageslänge
Tomorrow will be .
, % of the Moon is Illuminated

Heutige Rekorde

State Highs State Lows

Community

WunderPhotos

Upload Photos

1,962,540 Fotos hochgeladen!

WunderBlog® & News

Nearby

Luftqualität

  Luftqualität LQ Index Schadstoff
Not available.

Schneehöhe

Station Depth Höhe

Erdbebenaktivität

Stadt Distance Mag. Time & Date
Minimum magnitude displayed is 2.5.

Erdbebenaktivität

Stadt Distance Mag. Time & Date
Minimum magnitude displayed is 2.5.

küstennahe Wassertemperaturen

Ort Temperatur

Stations

Wetterstationen in der Umgebung

Stationsstandort Temp. Windchill Taupunkt Feuchtigkeit Wind Precip. Höhe Aktualisiert Art
                   

Watches & Warnings

There are currently no watches in effect.